createdAt,value
2023-05-01T00:00:23.990Z,7.87
2023-05-01T00:02:50.482Z,9.50
2023-05-01T00:05:17.133Z,8.43
2023-05-01T00:07:43.494Z,8.23
2023-05-01T00:10:09.956Z,9.27
2023-05-01T00:12:36.362Z,8.10
2023-05-01T00:15:02.768Z,7.57
2023-05-01T00:17:31.021Z,9.57
2023-05-01T00:19:58.179Z,7.17
2023-05-01T00:22:24.916Z,7.40
2023-05-01T00:24:51.682Z,7.83
2023-05-01T00:27:18.105Z,7.70
2023-05-01T00:29:44.530Z,7.47
2023-05-01T00:32:11.130Z,7.13
2023-05-01T00:34:37.787Z,5.97
2023-05-01T00:37:04.174Z,7.03
2023-05-01T00:39:30.555Z,6.53
2023-05-01T00:41:57.550Z,7.40
2023-05-01T00:44:23.976Z,6.10
2023-05-01T00:46:50.390Z,6.20
2023-05-01T00:49:17.670Z,5.97
2023-05-01T00:51:44.504Z,5.67
2023-05-01T00:54:10.916Z,6.43
2023-05-01T00:56:37.537Z,6.07
2023-05-01T00:59:04.283Z,5.80
2023-05-01T01:01:30.756Z,6.83
2023-05-01T01:03:57.353Z,5.83
2023-05-01T01:06:42.895Z,5.40
2023-05-01T01:09:34.188Z,6.00
2023-05-01T01:12:11.519Z,5.50
2023-05-01T01:15:05.535Z,5.77
2023-05-01T01:18:05.120Z,5.93
2023-05-01T01:20:35.131Z,5.50
2023-05-01T01:23:13.951Z,5.67
2023-05-01T01:26:00.144Z,5.67
2023-05-01T01:28:46.423Z,5.43
2023-05-01T01:31:29.788Z,5.60
2023-05-01T01:34:04.108Z,6.03
2023-05-01T01:36:49.769Z,5.63
2023-05-01T01:39:25.710Z,6.07
2023-05-01T01:41:53.679Z,5.67
2023-05-01T01:44:24.399Z,5.77
2023-05-01T01:46:51.467Z,6.47
2023-05-01T12:33:57.576Z,2.20
2023-05-01T12:36:29.950Z,2.77
2023-05-01T12:39:01.462Z,3.47
2023-05-01T12:41:50.728Z,2.87
2023-05-01T12:44:25.409Z,2.33
2023-05-01T12:47:04.667Z,1.90
2023-05-01T12:49:32.462Z,2.23
2023-05-01T12:52:03.517Z,1.57
2023-05-01T12:54:32.133Z,1.80
2023-05-01T12:57:08.432Z,1.93
2023-05-01T12:59:39.137Z,2.60
2023-05-01T13:02:15.762Z,1.80
2023-05-01T13:04:50.264Z,2.00
2023-05-01T13:07:18.897Z,1.83
2023-05-01T13:10:11.877Z,1.70
2023-05-01T13:12:44.569Z,1.93
2023-05-01T13:15:21.563Z,1.60
2023-05-01T13:17:48.414Z,1.40
2023-05-01T13:20:15.450Z,1.70
2023-05-01T13:22:42.076Z,1.60
2023-05-01T13:25:16.053Z,1.80
2023-05-01T13:27:48.560Z,1.63
2023-05-01T13:30:16.758Z,1.47
2023-05-01T13:32:43.286Z,1.77
2023-05-01T13:35:10.246Z,1.30
2023-05-01T13:37:36.768Z,1.40
2023-05-01T13:40:03.594Z,1.00
2023-05-01T13:42:30.010Z,1.53
2023-05-01T13:44:57.753Z,1.40
2023-05-01T13:47:28.295Z,1.20
2023-05-01T13:49:54.766Z,1.40
2023-05-01T13:52:21.222Z,1.50
2023-05-01T13:54:48.241Z,1.30
2023-05-01T13:57:15.987Z,1.30
2023-05-01T13:59:43.976Z,1.40
2023-05-01T14:02:24.211Z,1.30
2023-05-01T14:04:50.815Z,1.30
2023-05-01T14:07:23.103Z,1.30
2023-05-01T14:09:54.899Z,1.50
2023-05-01T14:12:29.253Z,11.97
2023-05-01T14:14:56.412Z,7.60
2023-05-01T14:17:30.086Z,7.27
2023-05-01T14:19:56.566Z,1.10
2023-05-01T14:22:23.028Z,1.60
2023-05-01T14:24:50.103Z,1.70
2023-05-01T14:27:16.550Z,1.50
2023-05-01T14:29:46.905Z,1.70
2023-05-01T14:32:13.348Z,1.40
2023-05-01T14:34:41.901Z,1.47
2023-05-01T14:37:12.048Z,1.90
2023-05-01T14:39:39.403Z,1.80
2023-05-01T14:42:06.100Z,1.40
2023-05-01T14:44:32.650Z,1.80
2023-05-01T14:46:59.236Z,1.60
2023-05-01T14:49:26.045Z,1.23
2023-05-01T14:51:53.544Z,1.87
2023-05-01T14:54:21.131Z,1.97
2023-05-01T14:56:48.309Z,1.30
2023-05-01T14:59:15.056Z,2.20
2023-05-01T15:01:41.653Z,2.23
2023-05-01T15:04:08.357Z,1.53
2023-05-01T15:06:35.048Z,2.70
2023-05-01T15:09:14.017Z,2.10
2023-05-01T15:11:40.387Z,2.10
2023-05-01T15:14:06.777Z,2.10
2023-05-01T15:16:33.217Z,2.03
2023-05-01T15:18:59.707Z,2.60
2023-05-01T15:21:26.246Z,2.90
2023-05-01T15:23:52.724Z,3.17
2023-05-01T15:26:20.555Z,2.50
2023-05-01T15:28:47.783Z,3.13
2023-05-01T15:31:14.544Z,2.87
2023-05-01T15:33:41.259Z,2.90
2023-05-01T15:36:07.865Z,3.00
2023-05-01T15:38:34.581Z,3.40
2023-05-01T15:41:00.990Z,3.00
2023-05-01T15:43:27.817Z,3.13
2023-05-01T15:45:57.963Z,3.80
2023-05-01T15:48:26.172Z,3.23
2023-05-01T15:50:52.714Z,3.07
2023-05-01T15:53:20.926Z,3.57
2023-05-01T15:55:47.290Z,3.33
2023-05-01T15:58:14.758Z,2.83
2023-05-01T16:00:41.311Z,3.37
2023-05-01T16:03:08.478Z,3.30
2023-05-01T16:05:36.657Z,3.40
2023-05-01T16:08:05.262Z,2.83
2023-05-01T16:10:37.785Z,3.23
2023-05-01T16:13:06.282Z,3.00
2023-05-01T16:15:33.222Z,2.73
2023-05-01T16:18:01.396Z,2.60
2023-05-01T16:20:29.175Z,2.67
2023-05-01T16:22:55.615Z,2.90
2023-05-01T16:25:22.071Z,3.03
2023-05-01T16:27:48.504Z,3.30
2023-05-01T16:30:15.004Z,3.13
2023-05-01T16:32:42.355Z,2.73
2023-05-01T17:07:09.182Z,3.40
2023-05-01T17:09:35.612Z,3.40
2023-05-01T17:12:03.673Z,3.13
2023-05-01T17:14:31.007Z,3.10
2023-05-01T17:17:00.414Z,2.73
2023-05-01T17:19:26.856Z,2.80
2023-05-01T17:21:53.608Z,3.07
2023-05-01T17:24:20.193Z,2.70
2023-05-01T17:26:46.971Z,2.80
2023-05-01T17:43:55.335Z,2.40
2023-05-01T17:46:22.002Z,2.30
2023-05-01T17:48:51.837Z,2.27
2023-05-01T17:51:18.278Z,2.60
2023-05-01T17:53:44.677Z,1.90
2023-05-01T17:56:11.242Z,2.03
2023-05-01T17:58:37.697Z,2.17
2023-05-01T18:01:07.041Z,1.80
2023-05-01T18:03:33.778Z,1.93
2023-05-01T18:06:02.570Z,1.90
2023-05-01T18:08:29.351Z,1.70
2023-05-01T18:10:55.921Z,1.63
2023-05-01T18:13:27.835Z,2.07
2023-05-01T18:15:57.550Z,1.73
2023-05-01T18:18:24.117Z,1.90
2023-05-01T18:20:50.562Z,1.57
2023-05-01T18:23:20.035Z,1.80
2023-05-01T18:25:46.473Z,1.87
2023-05-01T18:28:15.768Z,1.80
2023-05-01T18:30:42.154Z,2.00
2023-05-01T18:33:08.638Z,1.87
2023-05-01T18:35:38.152Z,1.50
2023-05-01T18:38:04.541Z,1.73
2023-05-01T18:40:31.718Z,1.90
2023-05-01T18:42:58.714Z,1.80
2023-05-01T18:45:25.168Z,2.03
2023-05-01T18:47:51.599Z,1.87
2023-05-01T18:50:21.736Z,2.00
2023-05-01T18:52:48.682Z,1.80
2023-05-01T18:55:15.401Z,1.87
2023-05-01T18:57:43.536Z,1.53
2023-05-01T19:00:12.945Z,1.70
2023-05-01T19:02:39.799Z,1.40
2023-05-01T19:05:11.151Z,1.60
2023-05-01T19:07:38.479Z,1.43
2023-05-01T19:10:05.291Z,2.00
2023-05-01T19:12:32.345Z,2.10
2023-05-01T19:14:58.833Z,2.17
2023-05-01T19:17:25.469Z,2.10
2023-05-01T19:19:51.901Z,2.30
2023-05-01T19:22:19.503Z,2.40
2023-05-01T19:24:45.943Z,2.20
2023-05-01T19:27:12.345Z,2.07
2023-05-01T19:29:39.652Z,2.13
2023-05-01T19:32:07.033Z,2.10
2023-05-01T19:34:33.510Z,2.40
2023-05-01T19:37:02.184Z,2.00
2023-05-01T19:39:29.157Z,1.90
2023-05-01T19:41:55.605Z,2.13
2023-05-01T19:44:22.106Z,2.03
2023-05-01T19:46:48.773Z,1.97
2023-05-01T19:49:15.162Z,2.40
2023-05-01T19:51:41.573Z,2.07
2023-05-01T19:54:07.963Z,2.73
2023-05-01T19:56:34.597Z,2.37
2023-05-01T19:59:00.979Z,2.13
2023-05-01T20:01:29.833Z,2.60
2023-05-01T20:03:56.347Z,2.60
2023-05-01T20:06:22.916Z,2.50
2023-05-01T20:08:49.318Z,2.30
2023-05-01T20:11:15.739Z,2.60
2023-05-01T20:13:42.330Z,2.37
2023-05-01T20:16:10.150Z,2.30
2023-05-01T20:18:37.218Z,2.30
2023-05-01T20:21:03.664Z,2.50
2023-05-01T20:23:30.054Z,2.63
2023-05-01T20:25:56.666Z,2.50
2023-05-01T20:28:23.488Z,2.10
2023-05-01T20:30:50.006Z,2.80
2023-05-01T20:33:17.646Z,2.90
2023-05-01T20:35:45.145Z,2.50
2023-05-01T20:38:11.589Z,2.63
2023-05-01T20:40:42.458Z,2.93
2023-05-01T20:43:09.195Z,2.83
2023-05-01T20:45:35.662Z,3.30
2023-05-01T20:48:02.168Z,2.97
2023-05-01T20:50:29.192Z,2.90
2023-05-01T20:52:56.442Z,2.83
2023-05-01T20:55:23.787Z,3.13
2023-05-01T20:57:50.282Z,3.63
2023-05-01T21:00:17.240Z,3.00
2023-05-01T21:02:43.926Z,2.80
2023-05-01T21:05:10.836Z,2.73
2023-05-01T21:07:38.416Z,2.97
2023-05-01T21:10:06.695Z,2.90
2023-05-01T21:12:33.090Z,3.17
2023-05-01T21:14:59.503Z,2.90
2023-05-01T21:17:26.730Z,3.10
2023-05-01T21:19:54.001Z,2.77
2023-05-01T21:22:22.004Z,3.40
2023-05-01T21:24:54.049Z,3.00
2023-05-01T21:27:21.072Z,3.30
2023-05-01T21:30:01.168Z,3.63
2023-05-01T21:32:32.636Z,4.30
2023-05-01T21:35:02.654Z,3.80
2023-05-01T21:37:29.396Z,3.70
2023-05-01T21:39:58.947Z,3.67
2023-05-01T21:42:30.537Z,4.33
2023-05-01T21:45:00.685Z,4.17
2023-05-01T21:47:27.917Z,4.07
2023-05-01T21:49:57.945Z,4.57
2023-05-01T21:52:24.691Z,4.10
2023-05-01T21:54:51.209Z,4.10
2023-05-01T21:57:17.672Z,4.27
2023-05-01T21:59:45.059Z,4.77
2023-05-01T22:02:11.913Z,4.30
2023-05-01T22:04:38.692Z,5.13
2023-05-01T22:07:05.804Z,5.60
2023-05-01T22:09:32.884Z,5.10
2023-05-01T22:11:59.306Z,5.20
2023-05-01T22:14:33.510Z,5.60
2023-05-01T22:17:10.407Z,5.80
2023-05-01T22:19:37.712Z,5.90
2023-05-01T22:22:04.151Z,5.67
2023-05-01T22:24:31.472Z,5.80
2023-05-01T22:26:57.860Z,6.03
2023-05-01T22:29:24.299Z,5.90
2023-05-01T22:31:50.777Z,5.87
2023-05-01T22:34:17.276Z,6.07
2023-05-01T22:36:43.638Z,6.17
2023-05-01T22:39:10.010Z,7.27
2023-05-01T22:41:36.393Z,7.63
2023-05-01T22:44:02.860Z,7.73
2023-05-01T22:46:29.277Z,8.23
2023-05-01T22:48:55.668Z,7.67
2023-05-01T22:51:22.154Z,8.80
2023-05-01T22:53:48.550Z,9.60
2023-05-01T22:56:15.036Z,9.93
2023-05-01T22:58:41.427Z,9.70
2023-05-01T23:01:08.329Z,9.83
2023-05-01T23:03:37.205Z,9.30
2023-05-01T23:06:06.423Z,10.23
2023-05-01T23:08:34.076Z,9.67
2023-05-01T23:11:00.557Z,10.63
2023-05-01T23:13:28.043Z,10.33
2023-05-01T23:15:54.487Z,10.10
2023-05-01T23:18:23.682Z,11.07
2023-05-01T23:20:51.585Z,10.47
2023-05-01T23:23:20.067Z,12.27
2023-05-01T23:25:48.923Z,12.10
2023-05-01T23:28:20.512Z,13.43
2023-05-01T23:30:59.389Z,13.67
2023-05-01T23:33:27.827Z,13.90
2023-05-01T23:35:54.481Z,16.00
2023-05-01T23:38:20.958Z,15.23
2023-05-01T23:40:47.416Z,15.53
2023-05-01T23:43:13.947Z,16.80
2023-05-01T23:45:40.403Z,16.27
2023-05-01T23:48:07.346Z,16.37
2023-05-01T23:50:33.828Z,16.70
2023-05-01T23:53:05.373Z,17.37
2023-05-01T23:55:31.762Z,17.17
2023-05-01T23:57:58.324Z,17.43
